sensor_id;sensor_type;location;lat;lon;timestamp;P1;P2;P0
55304;PMS7003;65692;51.378;19.824;2023-03-26T00:01:52;7.75;7.25;6.25
55304;PMS7003;65692;51.378;19.824;2023-03-26T00:04:21;7.25;7.25;6.00
55304;PMS7003;65692;51.378;19.824;2023-03-26T00:06:47;9.25;5.00;2.00
55304;PMS7003;65692;51.378;19.824;2023-03-26T00:09:14;13.75;11.25;10.00
55304;PMS7003;65692;51.378;19.824;2023-03-26T00:11:41;14.00;9.00;8.50
55304;PMS7003;65692;51.378;19.824;2023-03-26T00:14:08;6.50;5.25;2.00
55304;PMS7003;65692;51.378;19.824;2023-03-26T00:16:39;7.50;7.50;6.50
55304;PMS7003;65692;51.378;19.824;2023-03-26T00:19:09;9.25;7.25;5.25
55304;PMS7003;65692;51.378;19.824;2023-03-26T00:21:36;10.00;9.75;7.00
55304;PMS7003;65692;51.378;19.824;2023-03-26T00:24:04;8.25;7.75;6.00
55304;PMS7003;65692;51.378;19.824;2023-03-26T00:26:34;11.00;8.25;6.00
55304;PMS7003;65692;51.378;19.824;2023-03-26T00:29:03;7.00;7.00;5.25
55304;PMS7003;65692;51.378;19.824;2023-03-26T00:31:29;11.50;8.50;7.00
55304;PMS7003;65692;51.378;19.824;2023-03-26T00:33:56;17.50;9.75;7.00
55304;PMS7003;65692;51.378;19.824;2023-03-26T00:36:23;10.25;10.25;7.00
55304;PMS7003;65692;51.378;19.824;2023-03-26T00:38:52;9.50;7.50;6.00
55304;PMS7003;65692;51.378;19.824;2023-03-26T00:41:20;7.50;6.25;5.75
55304;PMS7003;65692;51.378;19.824;2023-03-26T00:43:52;9.00;6.50;5.25
55304;PMS7003;65692;51.378;19.824;2023-03-26T00:46:22;8.50;8.50;6.25
55304;PMS7003;65692;51.378;19.824;2023-03-26T00:48:48;6.75;6.25;5.00
55304;PMS7003;65692;51.378;19.824;2023-03-26T00:51:16;6.75;4.00;3.00
55304;PMS7003;65692;51.378;19.824;2023-03-26T00:53:44;6.75;6.50;5.75
55304;PMS7003;65692;51.378;19.824;2023-03-26T00:56:11;7.25;6.50;5.75
55304;PMS7003;65692;51.378;19.824;2023-03-26T00:58:38;9.25;7.00;6.00
55304;PMS7003;65692;51.378;19.824;2023-03-26T01:01:06;5.00;5.00;3.50
55304;PMS7003;65692;51.378;19.824;2023-03-26T01:03:34;10.25;7.25;5.00
55304;PMS7003;65692;51.378;19.824;2023-03-26T01:06:19;6.25;6.25;5.00
55304;PMS7003;65692;51.378;19.824;2023-03-26T01:08:49;7.25;4.50;3.00
55304;PMS7003;65692;51.378;19.824;2023-03-26T01:11:17;8.75;6.00;5.00
55304;PMS7003;65692;51.378;19.824;2023-03-26T01:13:46;8.00;7.00;6.00
55304;PMS7003;65692;51.378;19.824;2023-03-26T01:16:14;8.50;7.00;6.00
55304;PMS7003;65692;51.378;19.824;2023-03-26T01:18:46;10.00;8.50;5.75
55304;PMS7003;65692;51.378;19.824;2023-03-26T01:21:16;5.75;5.75;4.00
55304;PMS7003;65692;51.378;19.824;2023-03-26T01:23:57;6.25;6.00;5.00
55304;PMS7003;65692;51.378;19.824;2023-03-26T01:29:03;9.50;6.00;3.75
55304;PMS7003;65692;51.378;19.824;2023-03-26T01:39:03;9.75;7.75;5.75
55304;PMS7003;65692;51.378;19.824;2023-03-26T01:41:43;11.00;7.00;5.50
55304;PMS7003;65692;51.378;19.824;2023-03-26T01:46:37;6.25;5.00;5.00
55304;PMS7003;65692;51.378;19.824;2023-03-26T01:49:05;5.25;5.25;5.00
55304;PMS7003;65692;51.378;19.824;2023-03-26T01:51:40;5.50;5.00;5.00
55304;PMS7003;65692;51.378;19.824;2023-03-26T01:54:12;6.25;6.25;5.00
55304;PMS7003;65692;51.378;19.824;2023-03-26T02:04:33;9.75;6.25;5.00
55304;PMS7003;65692;51.378;19.824;2023-03-26T02:07:07;7.00;5.25;4.50
55304;PMS7003;65692;51.378;19.824;2023-03-26T02:09:39;9.25;6.75;6.00
55304;PMS7003;65692;51.378;19.824;2023-03-26T02:12:07;7.00;7.00;5.00
55304;PMS7003;65692;51.378;19.824;2023-03-26T02:14:34;5.25;5.25;5.00
55304;PMS7003;65692;51.378;19.824;2023-03-26T02:17:02;9.00;5.00;4.50
55304;PMS7003;65692;51.378;19.824;2023-03-26T02:19:28;9.00;6.00;5.00
55304;PMS7003;65692;51.378;19.824;2023-03-26T02:21:55;5.25;4.00;2.75
55304;PMS7003;65692;51.378;19.824;2023-03-26T02:24:25;5.50;5.00;3.00
55304;PMS7003;65692;51.378;19.824;2023-03-26T02:26:51;5.75;5.75;4.50
55304;PMS7003;65692;51.378;19.824;2023-03-26T02:29:18;7.00;4.00;3.00
55304;PMS7003;65692;51.378;19.824;2023-03-26T02:31:46;7.25;5.00;3.00
55304;PMS7003;65692;51.378;19.824;2023-03-26T02:34:14;7.00;5.75;3.00
55304;PMS7003;65692;51.378;19.824;2023-03-26T02:36:40;6.25;6.00;5.00
55304;PMS7003;65692;51.378;19.824;2023-03-26T02:39:09;6.75;5.25;4.50
55304;PMS7003;65692;51.378;19.824;2023-03-26T02:41:39;6.25;5.00;4.50
55304;PMS7003;65692;51.378;19.824;2023-03-26T02:44:06;5.25;5.25;3.50
55304;PMS7003;65692;51.378;19.824;2023-03-26T02:46:32;5.50;3.50;3.50
55304;PMS7003;65692;51.378;19.824;2023-03-26T02:48:58;5.25;4.50;3.75
55304;PMS7003;65692;51.378;19.824;2023-03-26T02:51:25;9.50;3.50;3.00
55304;PMS7003;65692;51.378;19.824;2023-03-26T02:53:52;6.50;6.00;5.00
55304;PMS7003;65692;51.378;19.824;2023-03-26T02:56:20;3.50;3.00;2.00
55304;PMS7003;65692;51.378;19.824;2023-03-26T02:58:46;2.75;2.75;2.00
55304;PMS7003;65692;51.378;19.824;2023-03-26T03:01:13;4.50;4.50;3.50
55304;PMS7003;65692;51.378;19.824;2023-03-26T03:03:43;5.00;5.00;5.00
55304;PMS7003;65692;51.378;19.824;2023-03-26T03:06:12;5.00;3.00;3.00
55304;PMS7003;65692;51.378;19.824;2023-03-26T03:08:39;6.75;6.75;3.50
55304;PMS7003;65692;51.378;19.824;2023-03-26T03:11:08;4.50;3.00;2.00
55304;PMS7003;65692;51.378;19.824;2023-03-26T03:13:35;7.75;5.00;3.00
55304;PMS7003;65692;51.378;19.824;2023-03-26T03:16:02;3.00;3.00;2.00
55304;PMS7003;65692;51.378;19.824;2023-03-26T03:18:29;6.25;3.00;3.00
55304;PMS7003;65692;51.378;19.824;2023-03-26T03:20:55;8.75;3.50;2.50
55304;PMS7003;65692;51.378;19.824;2023-03-26T03:23:21;7.50;4.00;4.00
55304;PMS7003;65692;51.378;19.824;2023-03-26T03:25:48;5.50;5.25;4.00
55304;PMS7003;65692;51.378;19.824;2023-03-26T03:28:18;7.00;3.75;1.75
55304;PMS7003;65692;51.378;19.824;2023-03-26T03:30:45;5.25;3.00;2.00
55304;PMS7003;65692;51.378;19.824;2023-03-26T03:33:12;4.50;2.00;2.00
55304;PMS7003;65692;51.378;19.824;2023-03-26T03:35:38;11.00;6.00;3.00
55304;PMS7003;65692;51.378;19.824;2023-03-26T03:38:05;5.00;3.50;3.00
55304;PMS7003;65692;51.378;19.824;2023-03-26T03:40:31;5.25;3.50;3.00
55304;PMS7003;65692;51.378;19.824;2023-03-26T03:42:58;11.50;5.00;5.00
55304;PMS7003;65692;51.378;19.824;2023-03-26T03:45:24;9.25;5.00;3.00
55304;PMS7003;65692;51.378;19.824;2023-03-26T03:47:51;5.25;4.50;4.00
55304;PMS7003;65692;51.378;19.824;2023-03-26T03:50:18;5.25;4.00;3.50
55304;PMS7003;65692;51.378;19.824;2023-03-26T03:52:44;5.25;5.25;3.50
55304;PMS7003;65692;51.378;19.824;2023-03-26T03:55:11;6.25;5.00;3.00
55304;PMS7003;65692;51.378;19.824;2023-03-26T03:57:39;7.50;6.25;4.50
55304;PMS7003;65692;51.378;19.824;2023-03-26T04:00:06;8.75;5.00;4.50
55304;PMS7003;65692;51.378;19.824;2023-03-26T04:02:34;5.00;5.00;3.00
55304;PMS7003;65692;51.378;19.824;2023-03-26T04:05:01;5.75;5.00;3.00
55304;PMS7003;65692;51.378;19.824;2023-03-26T04:07:28;9.00;5.75;5.00
55304;PMS7003;65692;51.378;19.824;2023-03-26T04:09:58;5.25;5.00;3.00
55304;PMS7003;65692;51.378;19.824;2023-03-26T04:12:30;3.75;3.00;3.00
55304;PMS7003;65692;51.378;19.824;2023-03-26T04:14:57;8.50;5.00;5.00
55304;PMS7003;65692;51.378;19.824;2023-03-26T04:17:23;5.50;5.00;4.00
55304;PMS7003;65692;51.378;19.824;2023-03-26T04:19:50;7.25;5.00;3.00
55304;PMS7003;65692;51.378;19.824;2023-03-26T04:22:20;4.50;4.50;4.00
55304;PMS7003;65692;51.378;19.824;2023-03-26T04:24:47;6.75;3.00;3.00
55304;PMS7003;65692;51.378;19.824;2023-03-26T04:27:16;5.00;5.00;5.00
55304;PMS7003;65692;51.378;19.824;2023-03-26T04:29:44;6.00;3.50;3.00
55304;PMS7003;65692;51.378;19.824;2023-03-26T04:32:15;7.00;5.25;2.75
55304;PMS7003;65692;51.378;19.824;2023-03-26T04:34:45;6.25;5.00;3.00
55304;PMS7003;65692;51.378;19.824;2023-03-26T04:37:21;5.25;2.75;2.25
55304;PMS7003;65692;51.378;19.824;2023-03-26T04:39:48;7.00;6.00;5.00
55304;PMS7003;65692;51.378;19.824;2023-03-26T04:42:15;2.00;1.75;1.00
55304;PMS7003;65692;51.378;19.824;2023-03-26T04:44:46;6.25;6.00;5.50
55304;PMS7003;65692;51.378;19.824;2023-03-26T04:47:18;6.25;6.25;5.25
55304;PMS7003;65692;51.378;19.824;2023-03-26T04:49:47;5.75;5.25;5.00
55304;PMS7003;65692;51.378;19.824;2023-03-26T04:52:14;9.75;6.00;5.00
55304;PMS7003;65692;51.378;19.824;2023-03-26T04:54:41;5.00;5.00;3.50
55304;PMS7003;65692;51.378;19.824;2023-03-26T04:57:11;6.50;6.00;5.00
55304;PMS7003;65692;51.378;19.824;2023-03-26T04:59:40;6.75;5.50;5.00
55304;PMS7003;65692;51.378;19.824;2023-03-26T05:02:09;6.00;6.00;5.00
55304;PMS7003;65692;51.378;19.824;2023-03-26T05:04:36;5.25;3.00;2.75
55304;PMS7003;65692;51.378;19.824;2023-03-26T05:07:06;6.00;5.00;3.00
55304;PMS7003;65692;51.378;19.824;2023-03-26T05:09:32;6.00;4.50;3.00
55304;PMS7003;65692;51.378;19.824;2023-03-26T05:11:58;6.00;6.00;5.00
55304;PMS7003;65692;51.378;19.824;2023-03-26T05:14:25;8.00;5.00;4.50
55304;PMS7003;65692;51.378;19.824;2023-03-26T05:16:51;6.00;4.50;3.00
55304;PMS7003;65692;51.378;19.824;2023-03-26T05:19:18;5.50;5.00;3.00
55304;PMS7003;65692;51.378;19.824;2023-03-26T05:21:45;6.00;5.00;3.00
55304;PMS7003;65692;51.378;19.824;2023-03-26T05:24:11;6.00;4.50;3.00
55304;PMS7003;65692;51.378;19.824;2023-03-26T05:26:38;5.75;5.50;4.75
55304;PMS7003;65692;51.378;19.824;2023-03-26T05:29:04;3.50;3.00;2.25
55304;PMS7003;65692;51.378;19.824;2023-03-26T05:31:31;9.00;4.75;4.00
55304;PMS7003;65692;51.378;19.824;2023-03-26T05:33:57;7.00;4.75;3.50
55304;PMS7003;65692;51.378;19.824;2023-03-26T05:36:26;5.00;2.00;2.00
55304;PMS7003;65692;51.378;19.824;2023-03-26T05:38:53;4.75;3.25;2.00
55304;PMS7003;65692;51.378;19.824;2023-03-26T05:41:20;8.25;5.75;5.50
55304;PMS7003;65692;51.378;19.824;2023-03-26T05:43:46;7.00;6.00;4.25
55304;PMS7003;65692;51.378;19.824;2023-03-26T05:46:14;8.00;4.25;4.00
55304;PMS7003;65692;51.378;19.824;2023-03-26T05:48:40;5.25;3.00;2.00
55304;PMS7003;65692;51.378;19.824;2023-03-26T05:51:07;4.00;3.25;3.25
55304;PMS7003;65692;51.378;19.824;2023-03-26T05:53:33;4.75;3.00;2.75
55304;PMS7003;65692;51.378;19.824;2023-03-26T05:56:00;7.00;6.00;4.00
55304;PMS7003;65692;51.378;19.824;2023-03-26T05:58:28;4.50;3.75;3.75
55304;PMS7003;65692;51.378;19.824;2023-03-26T06:00:55;6.50;5.00;4.00
55304;PMS7003;65692;51.378;19.824;2023-03-26T06:03:24;3.75;3.00;2.00
55304;PMS7003;65692;51.378;19.824;2023-03-26T06:05:51;4.25;4.25;4.25
55304;PMS7003;65692;51.378;19.824;2023-03-26T06:08:17;6.25;6.00;4.25
55304;PMS7003;65692;51.378;19.824;2023-03-26T06:10:44;5.00;4.00;3.00
55304;PMS7003;65692;51.378;19.824;2023-03-26T06:13:11;5.50;5.50;4.25
55304;PMS7003;65692;51.378;19.824;2023-03-26T06:15:38;6.50;6.50;6.00
55304;PMS7003;65692;51.378;19.824;2023-03-26T06:18:05;3.00;3.00;2.00
55304;PMS7003;65692;51.378;19.824;2023-03-26T06:20:31;6.25;6.00;4.00
55304;PMS7003;65692;51.378;19.824;2023-03-26T06:22:58;7.00;6.50;5.50
55304;PMS7003;65692;51.378;19.824;2023-03-26T06:25:24;4.25;3.75;3.00
55304;PMS7003;65692;51.378;19.824;2023-03-26T06:27:51;5.00;5.00;3.25
55304;PMS7003;65692;51.378;19.824;2023-03-26T06:30:17;7.75;6.50;6.00
55304;PMS7003;65692;51.378;19.824;2023-03-26T06:32:43;6.00;6.00;4.50
55304;PMS7003;65692;51.378;19.824;2023-03-26T06:35:10;6.75;6.75;6.75
55304;PMS7003;65692;51.378;19.824;2023-03-26T06:37:37;8.50;7.75;5.75
55304;PMS7003;65692;51.378;19.824;2023-03-26T06:40:04;7.75;7.75;7.00
55304;PMS7003;65692;51.378;19.824;2023-03-26T06:42:30;9.00;9.00;7.75
55304;PMS7003;65692;51.378;19.824;2023-03-26T06:45:17;10.75;7.25;6.50
55304;PMS7003;65692;51.378;19.824;2023-03-26T06:47:43;7.75;6.00;4.75
55304;PMS7003;65692;51.378;19.824;2023-03-26T06:50:10;4.75;4.75;4.00
55304;PMS7003;65692;51.378;19.824;2023-03-26T06:52:37;3.00;3.00;2.75
55304;PMS7003;65692;51.378;19.824;2023-03-26T06:55:03;2.25;1.00;1.00
55304;PMS7003;65692;51.378;19.824;2023-03-26T06:57:31;2.00;2.00;2.00
55304;PMS7003;65692;51.378;19.824;2023-03-26T06:59:58;3.75;3.50;3.00
55304;PMS7003;65692;51.378;19.824;2023-03-26T07:02:24;3.50;2.50;2.00
55304;PMS7003;65692;51.378;19.824;2023-03-26T07:04:51;2.00;2.00;1.50
55304;PMS7003;65692;51.378;19.824;2023-03-26T07:07:18;1.25;1.25;1.00
55304;PMS7003;65692;51.378;19.824;2023-03-26T07:09:47;1.25;1.25;1.25
55304;PMS7003;65692;51.378;19.824;2023-03-26T07:12:13;2.00;2.00;1.25
55304;PMS7003;65692;51.378;19.824;2023-03-26T07:14:40;4.00;2.00;2.00
55304;PMS7003;65692;51.378;19.824;2023-03-26T07:17:06;3.25;2.00;1.25
55304;PMS7003;65692;51.378;19.824;2023-03-26T07:19:32;2.00;2.00;2.00
55304;PMS7003;65692;51.378;19.824;2023-03-26T07:21:59;1.50;1.00;1.00
55304;PMS7003;65692;51.378;19.824;2023-03-26T07:24:26;2.00;2.00;2.00
55304;PMS7003;65692;51.378;19.824;2023-03-26T07:29:32;2.00;1.00;1.00
55304;PMS7003;65692;51.378;19.824;2023-03-26T07:32:06;0.50;0.50;0.25
55304;PMS7003;65692;51.378;19.824;2023-03-26T07:34:42;0.00;0.00;0.00
55304;PMS7003;65692;51.378;19.824;2023-03-26T07:37:14;2.00;1.25;1.00
55304;PMS7003;65692;51.378;19.824;2023-03-26T07:39:58;3.25;3.25;3.00
55304;PMS7003;65692;51.378;19.824;2023-03-26T07:49:54;4.75;3.75;3.25
55304;PMS7003;65692;51.378;19.824;2023-03-26T07:52:23;2.00;2.00;2.00
55304;PMS7003;65692;51.378;19.824;2023-03-26T07:54:50;4.25;2.50;2.50
55304;PMS7003;65692;51.378;19.824;2023-03-26T07:59:54;2.00;2.00;2.00
55304;PMS7003;65692;51.378;19.824;2023-03-26T08:13:09;1.00;1.00;0.75
55304;PMS7003;65692;51.378;19.824;2023-03-26T08:20:48;5.25;2.50;2.25
55304;PMS7003;65692;51.378;19.824;2023-03-26T08:31:11;3.00;3.00;3.00
55304;PMS7003;65692;51.378;19.824;2023-03-26T08:33:40;3.00;3.00;3.00
55304;PMS7003;65692;51.378;19.824;2023-03-26T08:36:07;2.00;2.00;2.00
55304;PMS7003;65692;51.378;19.824;2023-03-26T08:38:34;3.50;2.75;2.00
55304;PMS7003;65692;51.378;19.824;2023-03-26T08:56:25;7.75;3.00;2.25
55304;PMS7003;65692;51.378;19.824;2023-03-26T09:09:21;3.00;3.00;2.50
55304;PMS7003;65692;51.378;19.824;2023-03-26T09:12:06;3.00;2.00;2.00
55304;PMS7003;65692;51.378;19.824;2023-03-26T09:14:42;2.00;2.00;1.25
55304;PMS7003;65692;51.378;19.824;2023-03-26T09:17:33;3.50;3.00;3.00
55304;PMS7003;65692;51.378;19.824;2023-03-26T09:25:24;2.00;2.00;2.00
55304;PMS7003;65692;51.378;19.824;2023-03-26T09:31:20;2.00;2.00;2.00
55304;PMS7003;65692;51.378;19.824;2023-03-26T09:46:20;1.00;1.00;1.00
55304;PMS7003;65692;51.378;19.824;2023-03-26T09:56:47;3.00;1.50;1.00
55304;PMS7003;65692;51.378;19.824;2023-03-26T10:12:49;2.00;2.00;1.75
55304;PMS7003;65692;51.378;19.824;2023-03-26T10:18:08;5.25;4.25;3.75
55304;PMS7003;65692;51.378;19.824;2023-03-26T10:24:11;2.00;2.00;1.00
55304;PMS7003;65692;51.378;19.824;2023-03-26T10:37:08;0.00;0.00;0.00
55304;PMS7003;65692;51.378;19.824;2023-03-26T10:42:38;0.00;0.00;0.00
55304;PMS7003;65692;51.378;19.824;2023-03-26T10:45:20;3.00;2.00;2.00
55304;PMS7003;65692;51.378;19.824;2023-03-26T10:50:28;3.75;2.25;1.25
55304;PMS7003;65692;51.378;19.824;2023-03-26T10:53:11;3.25;2.50;2.00
55304;PMS7003;65692;51.378;19.824;2023-03-26T10:55:42;2.00;2.00;2.00
55304;PMS7003;65692;51.378;19.824;2023-03-26T11:00:44;2.75;2.00;1.75
55304;PMS7003;65692;51.378;19.824;2023-03-26T11:05:50;9.25;7.75;5.25
55304;PMS7003;65692;51.378;19.824;2023-03-26T11:08:22;3.00;2.75;2.75
55304;PMS7003;65692;51.378;19.824;2023-03-26T11:11:07;10.00;8.00;5.25
55304;PMS7003;65692;51.378;19.824;2023-03-26T11:13:45;10.25;9.75;7.75
55304;PMS7003;65692;51.378;19.824;2023-03-26T11:18:48;9.25;9.00;6.00
55304;PMS7003;65692;51.378;19.824;2023-03-26T11:26:37;3.75;3.75;3.25
55304;PMS7003;65692;51.378;19.824;2023-03-26T11:32:12;3.00;3.00;2.00
55304;PMS7003;65692;51.378;19.824;2023-03-26T11:34:44;3.00;2.00;2.00
55304;PMS7003;65692;51.378;19.824;2023-03-26T11:37:20;4.00;4.00;3.75
55304;PMS7003;65692;51.378;19.824;2023-03-26T11:39:53;2.25;2.25;2.00
55304;PMS7003;65692;51.378;19.824;2023-03-26T11:42:22;1.50;1.00;1.00
55304;PMS7003;65692;51.378;19.824;2023-03-26T11:44:56;1.25;0.50;0.00
55304;PMS7003;65692;51.378;19.824;2023-03-26T11:47:27;5.00;2.25;2.00
55304;PMS7003;65692;51.378;19.824;2023-03-26T11:49:56;1.50;1.50;1.00
55304;PMS7003;65692;51.378;19.824;2023-03-26T11:52:24;3.75;2.00;1.75
55304;PMS7003;65692;51.378;19.824;2023-03-26T11:54:51;3.50;2.00;1.25
55304;PMS7003;65692;51.378;19.824;2023-03-26T11:57:19;2.25;2.25;2.00
55304;PMS7003;65692;51.378;19.824;2023-03-26T12:02:24;3.25;2.00;2.00
55304;PMS7003;65692;51.378;19.824;2023-03-26T12:04:51;2.50;2.00;2.00
55304;PMS7003;65692;51.378;19.824;2023-03-26T12:07:21;8.00;4.00;3.50
55304;PMS7003;65692;51.378;19.824;2023-03-26T12:09:49;6.25;5.00;4.75
55304;PMS7003;65692;51.378;19.824;2023-03-26T12:12:17;3.50;3.00;3.00
55304;PMS7003;65692;51.378;19.824;2023-03-26T12:14:44;6.00;3.00;3.00
55304;PMS7003;65692;51.378;19.824;2023-03-26T12:17:13;5.00;3.25;3.00
55304;PMS7003;65692;51.378;19.824;2023-03-26T12:19:57;3.25;3.25;3.00
55304;PMS7003;65692;51.378;19.824;2023-03-26T12:22:33;3.00;2.25;2.00
55304;PMS7003;65692;51.378;19.824;2023-03-26T12:25:13;3.00;3.00;2.50
55304;PMS7003;65692;51.378;19.824;2023-03-26T12:27:42;5.00;5.00;4.00
55304;PMS7003;65692;51.378;19.824;2023-03-26T12:30:10;2.25;2.00;1.00
55304;PMS7003;65692;51.378;19.824;2023-03-26T12:32:40;4.00;4.00;3.50
55304;PMS7003;65692;51.378;19.824;2023-03-26T12:35:15;5.00;3.00;2.75
55304;PMS7003;65692;51.378;19.824;2023-03-26T12:37:44;3.00;3.00;3.00
55304;PMS7003;65692;51.378;19.824;2023-03-26T12:42:51;4.00;4.00;3.00
55304;PMS7003;65692;51.378;19.824;2023-03-26T12:45:38;2.75;2.75;2.75
55304;PMS7003;65692;51.378;19.824;2023-03-26T12:48:05;2.00;2.00;2.00
55304;PMS7003;65692;51.378;19.824;2023-03-26T12:50:40;3.00;2.00;2.00
55304;PMS7003;65692;51.378;19.824;2023-03-26T12:58:20;3.00;3.00;2.50
55304;PMS7003;65692;51.378;19.824;2023-03-26T13:11:06;1.75;1.00;0.75
55304;PMS7003;65692;51.378;19.824;2023-03-26T13:16:05;1.50;1.00;1.00
55304;PMS7003;65692;51.378;19.824;2023-03-26T13:26:08;1.00;1.00;1.00
55304;PMS7003;65692;51.378;19.824;2023-03-26T13:28:44;0.50;0.50;0.25
55304;PMS7003;65692;51.378;19.824;2023-03-26T13:36:17;0.50;0.00;0.00
55304;PMS7003;65692;51.378;19.824;2023-03-26T13:39:06;1.00;0.25;0.25
55304;PMS7003;65692;51.378;19.824;2023-03-26T13:41:42;1.00;1.00;1.00
55304;PMS7003;65692;51.378;19.824;2023-03-26T13:44:19;1.00;1.00;1.00
55304;PMS7003;65692;51.378;19.824;2023-03-26T13:46:54;1.25;0.75;0.00
55304;PMS7003;65692;51.378;19.824;2023-03-26T13:52:09;2.50;2.50;2.00
55304;PMS7003;65692;51.378;19.824;2023-03-26T13:57:08;4.75;4.75;3.25
55304;PMS7003;65692;51.378;19.824;2023-03-26T13:59:39;3.00;1.75;1.25
55304;PMS7003;65692;51.378;19.824;2023-03-26T14:04:48;3.75;1.00;1.00
55304;PMS7003;65692;51.378;19.824;2023-03-26T14:07:20;1.00;1.00;1.00
55304;PMS7003;65692;51.378;19.824;2023-03-26T14:09:59;1.25;1.25;1.00
55304;PMS7003;65692;51.378;19.824;2023-03-26T14:15:12;1.00;1.00;1.00
55304;PMS7003;65692;51.378;19.824;2023-03-26T14:18:43;2.00;2.00;1.50
55304;PMS7003;65692;51.378;19.824;2023-03-26T14:21:00;2.00;1.00;1.00
55304;PMS7003;65692;51.378;19.824;2023-03-26T14:23:51;9.75;6.50;4.50
55304;PMS7003;65692;51.378;19.824;2023-03-26T14:29:36;8.25;5.00;4.00
55304;PMS7003;65692;51.378;19.824;2023-03-26T14:53:38;9.50;7.75;6.00
55304;PMS7003;65692;51.378;19.824;2023-03-26T15:01:25;14.75;14.25;10.50
55304;PMS7003;65692;51.378;19.824;2023-03-26T15:41:03;5.00;4.00;3.25
55304;PMS7003;65692;51.378;19.824;2023-03-26T15:49:42;9.75;6.25;4.50
55304;PMS7003;65692;51.378;19.824;2023-03-26T15:54:44;6.25;6.25;4.50
55304;PMS7003;65692;51.378;19.824;2023-03-26T15:57:28;8.75;8.50;7.50
55304;PMS7003;65692;51.378;19.824;2023-03-26T16:02:45;13.75;12.25;10.00
55304;PMS7003;65692;51.378;19.824;2023-03-26T16:14:03;11.00;6.25;5.25
55304;PMS7003;65692;51.378;19.824;2023-03-26T16:18:27;8.50;6.75;5.00
55304;PMS7003;65692;51.378;19.824;2023-03-26T16:21:02;14.75;13.00;11.25
55304;PMS7003;65692;51.378;19.824;2023-03-26T16:26:16;10.00;7.75;6.50
55304;PMS7003;65692;51.378;19.824;2023-03-26T16:36:35;10.75;9.25;7.75
55304;PMS7003;65692;51.378;19.824;2023-03-26T16:49:11;6.75;5.75;5.25
55304;PMS7003;65692;51.378;19.824;2023-03-26T16:54:20;8.25;8.00;7.00
55304;PMS7003;65692;51.378;19.824;2023-03-26T17:04:53;19.50;16.25;11.25
55304;PMS7003;65692;51.378;19.824;2023-03-26T17:07:23;17.75;12.25;10.50
55304;PMS7003;65692;51.378;19.824;2023-03-26T17:12:33;17.50;16.00;9.25
55304;PMS7003;65692;51.378;19.824;2023-03-26T17:20:31;43.50;31.75;18.50
55304;PMS7003;65692;51.378;19.824;2023-03-26T17:41:10;63.50;52.50;33.25
55304;PMS7003;65692;51.378;19.824;2023-03-26T17:43:42;51.00;41.00;28.00
55304;PMS7003;65692;51.378;19.824;2023-03-26T17:48:59;48.75;38.50;26.25
55304;PMS7003;65692;51.378;19.824;2023-03-26T17:53:57;54.50;43.25;28.75
55304;PMS7003;65692;51.378;19.824;2023-03-26T17:56:26;55.75;42.00;28.25
55304;PMS7003;65692;51.378;19.824;2023-03-26T17:58:54;59.75;45.75;31.00
55304;PMS7003;65692;51.378;19.824;2023-03-26T18:01:38;54.00;44.25;28.25
55304;PMS7003;65692;51.378;19.824;2023-03-26T18:04:16;50.25;42.75;27.00
55304;PMS7003;65692;51.378;19.824;2023-03-26T18:17:00;87.75;66.50;43.00
55304;PMS7003;65692;51.378;19.824;2023-03-26T18:19:27;77.00;58.25;38.00
55304;PMS7003;65692;51.378;19.824;2023-03-26T18:21:57;84.50;64.00;40.50
55304;PMS7003;65692;51.378;19.824;2023-03-26T18:26:55;126.50;110.50;65.00
55304;PMS7003;65692;51.378;19.824;2023-03-26T18:29:30;120.25;99.25;58.50
55304;PMS7003;65692;51.378;19.824;2023-03-26T18:34:29;168.33;141.67;85.33
55304;PMS7003;65692;51.378;19.824;2023-03-26T18:39:23;157.33;131.67;79.67
55304;PMS7003;65692;51.378;19.824;2023-03-26T18:41:49;184.33;153.33;89.00
55304;PMS7003;65692;51.378;19.824;2023-03-26T18:44:16;162.00;127.33;76.67
55304;PMS7003;65692;51.378;19.824;2023-03-26T18:46:44;137.33;115.00;72.00
55304;PMS7003;65692;51.378;19.824;2023-03-26T18:49:11;200.33;155.00;90.33
55304;PMS7003;65692;51.378;19.824;2023-03-26T18:51:38;157.00;126.33;72.33
55304;PMS7003;65692;51.378;19.824;2023-03-26T18:54:21;156.00;130.00;77.33
55304;PMS7003;65692;51.378;19.824;2023-03-26T18:56:48;153.67;125.33;74.00
55304;PMS7003;65692;51.378;19.824;2023-03-26T18:59:24;162.00;132.67;80.00
55304;PMS7003;65692;51.378;19.824;2023-03-26T19:01:54;158.00;123.33;80.00
55304;PMS7003;65692;51.378;19.824;2023-03-26T19:04:22;119.33;101.00;65.67
55304;PMS7003;65692;51.378;19.824;2023-03-26T19:06:49;117.25;98.25;62.00
55304;PMS7003;65692;51.378;19.824;2023-03-26T19:09:20;129.33;105.00;68.67
55304;PMS7003;65692;51.378;19.824;2023-03-26T19:11:58;121.25;105.25;64.25
55304;PMS7003;65692;51.378;19.824;2023-03-26T19:14:29;119.75;98.50;58.50
55304;PMS7003;65692;51.378;19.824;2023-03-26T19:17:00;117.50;93.25;53.75
55304;PMS7003;65692;51.378;19.824;2023-03-26T19:19:31;125.50;100.25;59.25
55304;PMS7003;65692;51.378;19.824;2023-03-26T19:21:59;118.00;98.50;54.75
55304;PMS7003;65692;51.378;19.824;2023-03-26T19:24:26;125.25;101.25;61.50
55304;PMS7003;65692;51.378;19.824;2023-03-26T19:26:53;121.25;104.50;64.00
55304;PMS7003;65692;51.378;19.824;2023-03-26T19:29:23;126.25;108.00;68.25
55304;PMS7003;65692;51.378;19.824;2023-03-26T19:31:51;138.33;114.33;72.33
55304;PMS7003;65692;51.378;19.824;2023-03-26T19:34:37;150.33;121.67;61.00
55304;PMS7003;65692;51.378;19.824;2023-03-26T19:39:44;190.67;155.33;94.00
55304;PMS7003;65692;51.378;19.824;2023-03-26T19:42:12;200.33;159.33;91.00
55304;PMS7003;65692;51.378;19.824;2023-03-26T19:44:39;206.67;156.67;96.33
55304;PMS7003;65692;51.378;19.824;2023-03-26T19:47:14;210.25;171.50;92.75
55304;PMS7003;65692;51.378;19.824;2023-03-26T19:55:30;186.67;150.00;93.00
55304;PMS7003;65692;51.378;19.824;2023-03-26T19:57:32;203.00;166.00;100.33
55304;PMS7003;65692;51.378;19.824;2023-03-26T20:00:02;186.33;155.33;95.67
55304;PMS7003;65692;51.378;19.824;2023-03-26T20:02:30;177.67;141.00;81.33
55304;PMS7003;65692;51.378;19.824;2023-03-26T20:04:56;185.00;141.67;83.00
55304;PMS7003;65692;51.378;19.824;2023-03-26T20:07:23;170.00;126.67;80.00
55304;PMS7003;65692;51.378;19.824;2023-03-26T20:10:02;156.33;122.67;77.00
55304;PMS7003;65692;51.378;19.824;2023-03-26T20:12:29;158.00;121.00;76.33
55304;PMS7003;65692;51.378;19.824;2023-03-26T20:14:55;140.33;112.33;66.00
55304;PMS7003;65692;51.378;19.824;2023-03-26T20:17:22;142.25;116.50;72.75
55304;PMS7003;65692;51.378;19.824;2023-03-26T20:19:48;131.50;107.25;66.50
55304;PMS7003;65692;51.378;19.824;2023-03-26T20:22:16;114.25;90.25;59.25
55304;PMS7003;65692;51.378;19.824;2023-03-26T20:24:45;114.25;98.25;60.25
55304;PMS7003;65692;51.378;19.824;2023-03-26T20:27:12;134.25;105.00;60.25
55304;PMS7003;65692;51.378;19.824;2023-03-26T20:29:41;117.25;97.25;58.00
55304;PMS7003;65692;51.378;19.824;2023-03-26T20:32:20;101.50;77.75;47.00
55304;PMS7003;65692;51.378;19.824;2023-03-26T20:34:50;93.25;66.25;42.50
55304;PMS7003;65692;51.378;19.824;2023-03-26T20:37:16;85.50;64.25;41.25
55304;PMS7003;65692;51.378;19.824;2023-03-26T20:39:43;86.00;64.75;42.75
55304;PMS7003;65692;51.378;19.824;2023-03-26T20:42:11;85.75;63.50;42.25